Time;durP1;ratioP1;P1;durP2;ratioP2;P2;SDS_P1;SDS_P2;PMS_P1;PMS_P2;Temp;Humidity;BMP_temperature;BMP_pressure;BME280_temperature;BME280_humidity;BME280_pressure;Samples;Min_cycle;Max_cycle;Signal;HPM_P1;HPM_P2
2024/03/15 00:02:24;;;;;;;5.28;2.42;;;;;;;;;;5123875;27;20102;-84
2024/03/15 00:05:09;;;;;;;5.05;2.65;;;;;;;;;;5126184;27;20644;-86
2024/03/15 00:07:54;;;;;;;6.53;2.97;;;;;;;;;;5126544;27;20026;-84
2024/03/15 00:10:39;;;;;;;7.53;2.53;;;;;;;;;;5108796;27;20035;-84
2024/03/15 00:13:25;;;;;;;6.35;2.47;;;;;;;;;;5105660;27;20088;-84
2024/03/15 00:16:11;;;;;;;6.13;2.33;;;;;;;;;;5106197;28;20133;-85
2024/03/15 00:18:58;;;;;;;3.65;2.00;;;;;;;;;;5105763;28;20031;-85
2024/03/15 00:21:43;;;;;;;3.75;2.20;;;;;;;;;;5104599;27;20076;-85
2024/03/15 00:24:28;;;;;;;5.22;2.70;;;;;;;;;;5109860;27;20393;-85
2024/03/15 00:27:13;;;;;;;3.75;2.40;;;;;;;;;;5108189;27;20019;-84
2024/03/15 00:29:59;;;;;;;6.18;2.60;;;;;;;;;;5108580;27;20035;-84
2024/03/15 00:32:44;;;;;;;5.38;2.33;;;;;;;;;;5105153;28;20089;-83
2024/03/15 00:35:29;;;;;;;5.50;2.70;;;;;;;;;;5105486;28;20038;-84
2024/03/15 00:38:15;;;;;;;4.57;2.80;;;;;;;;;;5115796;27;20114;-84
2024/03/15 00:41:00;;;;;;;8.35;2.80;;;;;;;;;;5126089;27;20034;-84
2024/03/15 00:43:45;;;;;;;4.35;2.10;;;;;;;;;;5089623;28;20051;-85
2024/03/15 00:46:30;;;;;;;3.83;2.20;;;;;;;;;;5107790;28;20098;-84
2024/03/15 00:49:16;;;;;;;6.78;2.45;;;;;;;;;;5101452;28;20035;-85
2024/03/15 00:52:01;;;;;;;5.53;2.50;;;;;;;;;;5105371;28;20530;-84
2024/03/15 00:54:47;;;;;;;6.05;2.42;;;;;;;;;;5095086;28;20051;-84
2024/03/15 00:57:33;;;;;;;5.57;2.47;;;;;;;;;;5105849;28;20103;-85
2024/03/15 01:00:18;;;;;;;5.63;2.80;;;;;;;;;;5107801;28;20023;-84
2024/03/15 01:03:03;;;;;;;5.57;2.75;;;;;;;;;;5107534;28;20462;-84
2024/03/15 01:05:49;;;;;;;8.95;3.78;;;;;;;;;;5111765;27;20019;-84
2024/03/15 01:08:34;;;;;;;6.10;2.85;;;;;;;;;;5109678;28;20062;-84
2024/03/15 01:11:20;;;;;;;4.90;3.03;;;;;;;;;;5109512;28;20055;-84
2024/03/15 01:14:05;;;;;;;3.90;2.30;;;;;;;;;;5099720;27;20110;-84
2024/03/15 01:16:50;;;;;;;5.13;2.55;;;;;;;;;;5123241;27;20465;-85
2024/03/15 01:19:35;;;;;;;3.92;2.50;;;;;;;;;;5128584;27;20114;-86
2024/03/15 01:22:21;;;;;;;6.75;2.70;;;;;;;;;;5111434;27;20078;-85
2024/03/15 01:25:06;;;;;;;6.07;3.33;;;;;;;;;;5107270;27;20027;-84
2024/03/15 01:27:54;;;;;;;4.32;2.53;;;;;;;;;;5128082;27;20024;-86
2024/03/15 01:30:39;;;;;;;4.47;2.20;;;;;;;;;;5122461;27;20028;-84
2024/03/15 01:33:25;;;;;;;3.63;2.00;;;;;;;;;;5108974;28;20114;-85
2024/03/15 01:36:11;;;;;;;4.78;2.45;;;;;;;;;;5110135;27;20039;-86
2024/03/15 01:38:56;;;;;;;7.28;2.90;;;;;;;;;;5107278;28;20035;-85
2024/03/15 01:41:42;;;;;;;4.20;2.30;;;;;;;;;;5120736;27;20050;-85
2024/03/15 01:44:43;;;;;;;6.47;2.35;;;;;;;;;;5108543;28;20107;-84
2024/03/15 01:47:28;;;;;;;6.88;2.20;;;;;;;;;;5124855;27;20038;-84
2024/03/15 01:50:13;;;;;;;6.70;3.28;;;;;;;;;;5125500;27;20038;-85
2024/03/15 01:53:00;;;;;;;4.97;2.17;;;;;;;;;;5112300;27;20023;-84
2024/03/15 01:55:45;;;;;;;4.72;2.40;;;;;;;;;;5128898;27;20038;-85
2024/03/15 01:58:30;;;;;;;5.53;2.17;;;;;;;;;;5109816;27;20091;-84
2024/03/15 02:01:16;;;;;;;3.47;2.15;;;;;;;;;;5122713;27;20123;-84
2024/03/15 02:04:02;;;;;;;7.80;2.78;;;;;;;;;;5108224;28;20381;-84
2024/03/15 02:06:48;;;;;;;5.47;2.42;;;;;;;;;;5109431;27;20381;-84
2024/03/15 02:09:33;;;;;;;6.20;2.60;;;;;;;;;;5128537;27;20220;-84
2024/03/15 02:12:19;;;;;;;4.60;2.40;;;;;;;;;;5128681;27;20022;-84
2024/03/15 02:15:05;;;;;;;3.65;2.63;;;;;;;;;;5126794;27;20368;-84
2024/03/15 02:17:50;;;;;;;7.22;2.17;;;;;;;;;;5125028;27;20035;-84
2024/03/15 02:20:35;;;;;;;4.13;2.33;;;;;;;;;;5107853;27;20027;-84
2024/03/15 02:23:21;;;;;;;5.35;2.15;;;;;;;;;;5107501;28;20506;-84
2024/03/15 02:26:07;;;;;;;4.43;2.03;;;;;;;;;;5107938;28;20024;-84
2024/03/15 02:28:53;;;;;;;9.20;2.65;;;;;;;;;;5108215;27;20031;-84
2024/03/15 02:31:38;;;;;;;5.13;2.33;;;;;;;;;;5106200;28;20503;-84
2024/03/15 02:34:23;;;;;;;7.13;2.33;;;;;;;;;;5119309;27;20126;-84
2024/03/15 02:37:09;;;;;;;5.38;2.10;;;;;;;;;;5108239;28;20020;-84
2024/03/15 02:39:54;;;;;;;3.90;1.88;;;;;;;;;;5124273;27;20046;-84
2024/03/15 02:42:39;;;;;;;5.15;2.13;;;;;;;;;;5128031;27;20053;-84
2024/03/15 02:45:25;;;;;;;7.07;2.50;;;;;;;;;;5117663;27;20027;-84
2024/03/15 02:48:11;;;;;;;3.72;2.60;;;;;;;;;;5112113;27;20034;-84
2024/03/15 02:50:56;;;;;;;4.30;2.42;;;;;;;;;;5107824;27;20473;-84
2024/03/15 02:53:43;;;;;;;4.28;2.47;;;;;;;;;;5107505;27;20027;-84
2024/03/15 02:56:28;;;;;;;4.85;2.40;;;;;;;;;;5107675;28;20331;-84
2024/03/15 02:59:13;;;;;;;3.22;2.28;;;;;;;;;;5110301;27;20034;-85
2024/03/15 03:01:59;;;;;;;6.72;2.42;;;;;;;;;;5124295;27;20026;-87
2024/03/15 03:04:44;;;;;;;5.65;2.38;;;;;;;;;;5122129;27;20106;-84
2024/03/15 03:07:29;;;;;;;6.03;2.60;;;;;;;;;;5110559;27;20015;-85
2024/03/15 03:10:14;;;;;;;3.10;2.15;;;;;;;;;;5118870;27;20031;-85
2024/03/15 03:13:00;;;;;;;4.45;2.33;;;;;;;;;;5128005;27;20039;-85
2024/03/15 03:15:45;;;;;;;4.95;2.75;;;;;;;;;;5110566;28;20114;-84
2024/03/15 03:18:30;;;;;;;4.15;2.35;;;;;;;;;;5110475;28;20036;-85
2024/03/15 03:21:16;;;;;;;5.68;2.47;;;;;;;;;;5108504;27;20035;-84
2024/03/15 03:24:01;;;;;;;4.70;2.38;;;;;;;;;;5109857;27;20531;-84
2024/03/15 03:26:46;;;;;;;3.50;2.10;;;;;;;;;;5110532;28;20397;-84
2024/03/15 03:29:32;;;;;;;3.05;2.03;;;;;;;;;;5110669;28;20028;-84
2024/03/15 03:32:17;;;;;;;3.55;2.08;;;;;;;;;;5136455;27;20047;-83
2024/03/15 03:35:04;;;;;;;3.97;2.40;;;;;;;;;;5155499;27;20011;-83
2024/03/15 03:37:49;;;;;;;2.97;1.90;;;;;;;;;;5157383;27;20015;-83
2024/03/15 03:40:33;;;;;;;5.20;2.60;;;;;;;;;;5127980;27;20127;-83
2024/03/15 03:43:19;;;;;;;8.60;2.30;;;;;;;;;;5110703;28;20541;-83
2024/03/15 03:46:06;;;;;;;2.85;1.88;;;;;;;;;;5109378;28;20055;-84
2024/03/15 03:48:52;;;;;;;4.28;2.05;;;;;;;;;;5110836;28;20023;-84
2024/03/15 03:51:37;;;;;;;4.47;2.15;;;;;;;;;;5118651;27;20031;-84
2024/03/15 03:54:23;;;;;;;5.18;1.90;;;;;;;;;;5140041;27;20030;-84
2024/03/15 03:57:18;;;;;;;4.53;2.42;;;;;;;;;;5129538;27;20401;-84
2024/03/15 04:00:21;;;;;;;4.35;2.10;;;;;;;;;;5113388;27;20030;-83
2024/03/15 04:03:07;;;;;;;2.88;1.70;;;;;;;;;;5120823;27;20030;-83
2024/03/15 04:05:52;;;;;;;3.05;1.92;;;;;;;;;;5091773;28;20168;-83
2024/03/15 04:08:37;;;;;;;7.60;2.70;;;;;;;;;;5102887;27;20022;-84
2024/03/15 04:11:23;;;;;;;4.68;2.40;;;;;;;;;;5127110;27;20025;-84
2024/03/15 04:14:11;;;;;;;3.53;1.92;;;;;;;;;;5090647;28;20084;-85
2024/03/15 04:16:57;;;;;;;3.67;2.00;;;;;;;;;;5107049;28;20023;-84
2024/03/15 04:19:43;;;;;;;6.68;2.22;;;;;;;;;;5107037;28;20015;-83
2024/03/15 04:22:28;;;;;;;6.70;2.28;;;;;;;;;;5106426;27;20026;-83
2024/03/15 04:25:17;;;;;;;4.57;2.17;;;;;;;;;;5111249;27;20023;-83
2024/03/15 04:28:02;;;;;;;5.15;2.55;;;;;;;;;;5108289;27;20019;-83
2024/03/15 04:30:47;;;;;;;5.13;2.00;;;;;;;;;;5106162;28;20489;-83
2024/03/15 04:33:33;;;;;;;4.10;2.40;;;;;;;;;;5105779;28;20028;-84
2024/03/15 04:36:18;;;;;;;7.22;2.85;;;;;;;;;;5107412;27;20042;-83
2024/03/15 04:39:05;;;;;;;5.40;3.15;;;;;;;;;;5105872;28;20088;-84
2024/03/15 04:41:50;;;;;;;11.43;5.68;;;;;;;;;;5105778;28;20040;-83
2024/03/15 04:44:40;;;;;;;6.53;3.90;;;;;;;;;;5095528;28;20296;-83
2024/03/15 04:47:26;;;;;;;5.43;2.63;;;;;;;;;;5121639;28;20027;-83
2024/03/15 04:50:12;;;;;;;7.20;3.33;;;;;;;;;;5126594;28;20027;-82
2024/03/15 04:52:57;;;;;;;6.35;3.20;;;;;;;;;;5105871;28;20030;-82
2024/03/15 04:55:42;;;;;;;5.57;2.58;;;;;;;;;;5105845;28;20481;-83
2024/03/15 04:58:30;;;;;;;5.80;2.55;;;;;;;;;;5126596;28;20027;-84
2024/03/15 05:01:16;;;;;;;4.45;2.10;;;;;;;;;;5125729;28;20050;-84
2024/03/15 05:04:01;;;;;;;3.53;2.20;;;;;;;;;;5106672;28;20223;-84
2024/03/15 05:06:46;;;;;;;4.35;2.30;;;;;;;;;;5117884;28;20028;-83
2024/03/15 05:09:32;;;;;;;4.65;2.28;;;;;;;;;;5105548;28;20033;-84
2024/03/15 05:12:17;;;;;;;2.80;2.03;;;;;;;;;;5106083;28;20023;-84
2024/03/15 05:15:03;;;;;;;3.42;1.98;;;;;;;;;;5105617;28;20111;-83
2024/03/15 05:17:48;;;;;;;7.38;2.45;;;;;;;;;;5113097;28;20058;-82
2024/03/15 05:20:34;;;;;;;7.80;2.85;;;;;;;;;;5107436;28;20031;-85
2024/03/15 05:23:19;;;;;;;4.35;2.00;;;;;;;;;;5114206;28;20027;-85
2024/03/15 05:26:07;;;;;;;4.50;2.10;;;;;;;;;;5105869;28;20106;-83
2024/03/15 05:28:53;;;;;;;6.85;2.35;;;;;;;;;;5112327;28;20039;-83
2024/03/15 05:31:38;;;;;;;5.25;2.00;;;;;;;;;;5109374;28;20077;-83
2024/03/15 05:34:24;;;;;;;6.20;2.40;;;;;;;;;;5111974;28;20098;-82
2024/03/15 05:37:09;;;;;;;6.38;2.58;;;;;;;;;;5126697;28;20025;-82
2024/03/15 05:39:54;;;;;;;8.48;2.83;;;;;;;;;;5107455;28;20431;-83
2024/03/15 05:42:41;;;;;;;6.60;2.03;;;;;;;;;;5121546;28;20050;-84
2024/03/15 05:45:26;;;;;;;4.55;2.22;;;;;;;;;;5113000;27;20032;-83
2024/03/15 05:48:11;;;;;;;6.57;2.95;;;;;;;;;;5117401;27;20115;-82
2024/03/15 05:50:56;;;;;;;7.95;3.60;;;;;;;;;;5121122;27;20028;-83
2024/03/15 05:53:41;;;;;;;6.55;3.17;;;;;;;;;;5110083;28;20023;-83
2024/03/15 05:56:27;;;;;;;5.13;2.40;;;;;;;;;;5122923;27;20038;-82
2024/03/15 05:59:12;;;;;;;3.83;2.33;;;;;;;;;;5119521;27;20415;-82
2024/03/15 06:01:57;;;;;;;5.38;2.75;;;;;;;;;;5119008;27;20373;-82
2024/03/15 06:04:42;;;;;;;4.38;2.20;;;;;;;;;;5116724;27;20390;-83
2024/03/15 06:07:28;;;;;;;3.45;2.28;;;;;;;;;;5119862;27;21156;-82
2024/03/15 06:10:14;;;;;;;6.13;2.30;;;;;;;;;;5111628;27;20058;-81
2024/03/15 06:12:59;;;;;;;5.82;2.33;;;;;;;;;;5121296;27;20041;-81
2024/03/15 06:15:45;;;;;;;6.20;2.60;;;;;;;;;;5121188;27;20589;-82
2024/03/15 06:18:30;;;;;;;4.00;2.05;;;;;;;;;;5118565;27;20103;-82
2024/03/15 06:21:15;;;;;;;4.63;2.50;;;;;;;;;;5112149;27;20434;-79
2024/03/15 06:24:00;;;;;;;4.35;2.33;;;;;;;;;;5120330;27;20585;-79
2024/03/15 06:26:47;;;;;;;5.45;2.63;;;;;;;;;;5125259;27;20035;-81
2024/03/15 06:29:33;;;;;;;12.80;2.53;;;;;;;;;;5119410;27;20134;-81
2024/03/15 06:32:25;;;;;;;4.88;2.20;;;;;;;;;;5108056;28;20360;-81
2024/03/15 06:35:22;;;;;;;8.63;2.45;;;;;;;;;;5111024;27;20011;-82
2024/03/15 06:38:09;;;;;;;7.30;3.20;;;;;;;;;;5135729;27;20031;-83
2024/03/15 06:41:12;;;;;;;8.35;2.70;;;;;;;;;;5127886;28;20048;-84
2024/03/15 06:47:15;;;;;;;7.40;3.20;;;;;;;;;;5123786;27;20043;-83
2024/03/15 06:50:06;;;;;;;6.47;2.42;;;;;;;;;;5127608;27;20027;-83
2024/03/15 06:52:51;;;;;;;5.85;2.42;;;;;;;;;;5128621;27;20024;-84
2024/03/15 06:55:37;;;;;;;10.18;2.63;;;;;;;;;;5128740;27;20015;-84
2024/03/15 06:58:22;;;;;;;9.25;3.13;;;;;;;;;;5134130;27;20058;-83
2024/03/15 07:01:07;;;;;;;3.25;1.85;;;;;;;;;;5125816;27;20031;-81
2024/03/15 07:03:52;;;;;;;6.80;2.20;;;;;;;;;;5124175;27;20035;-82
2024/03/15 07:06:38;;;;;;;8.63;2.83;;;;;;;;;;5109983;27;20042;-82
2024/03/15 07:09:23;;;;;;;9.93;3.70;;;;;;;;;;5110016;27;20295;-82
2024/03/15 07:12:08;;;;;;;9.02;4.40;;;;;;;;;;5114065;27;20025;-81
2024/03/15 07:14:54;;;;;;;5.68;2.85;;;;;;;;;;5114360;27;20027;-79
2024/03/15 07:17:39;;;;;;;5.85;2.83;;;;;;;;;;5106392;27;20027;-87
2024/03/15 07:20:24;;;;;;;6.15;2.70;;;;;;;;;;5113076;27;20330;-79
2024/03/15 07:23:11;;;;;;;8.55;2.70;;;;;;;;;;5112041;27;20030;-80
2024/03/15 07:25:56;;;;;;;9.57;3.35;;;;;;;;;;5114836;27;20027;-77
2024/03/15 07:28:41;;;;;;;8.48;3.08;;;;;;;;;;5112868;27;20397;-75
2024/03/15 07:31:26;;;;;;;4.35;2.40;;;;;;;;;;5111513;27;20085;-75
2024/03/15 07:34:15;;;;;;;4.03;2.33;;;;;;;;;;5113788;27;20034;-76
2024/03/15 07:37:01;;;;;;;5.60;2.55;;;;;;;;;;5110848;27;20027;-77
2024/03/15 07:39:46;;;;;;;5.80;2.47;;;;;;;;;;5110478;27;20018;-79
2024/03/15 07:42:31;;;;;;;4.95;2.45;;;;;;;;;;5115705;27;20054;-79
2024/03/15 07:45:17;;;;;;;4.57;2.08;;;;;;;;;;5111870;27;20026;-80
2024/03/15 07:48:03;;;;;;;4.82;2.22;;;;;;;;;;5114828;27;20015;-79
2024/03/15 07:50:48;;;;;;;6.47;2.15;;;;;;;;;;5109062;27;20077;-80
2024/03/15 07:53:33;;;;;;;5.18;2.47;;;;;;;;;;5109583;27;20031;-82
2024/03/15 07:56:21;;;;;;;5.45;2.10;;;;;;;;;;5116460;27;20034;-80
2024/03/15 07:59:09;;;;;;;13.23;3.28;;;;;;;;;;5110409;27;20027;-80
2024/03/15 08:01:55;;;;;;;5.93;1.98;;;;;;;;;;5115634;27;20297;-82
2024/03/15 08:04:45;;;;;;;4.68;1.75;;;;;;;;;;5109331;27;20046;-82
2024/03/15 08:07:31;;;;;;;4.95;1.77;;;;;;;;;;5114922;27;20023;-81
2024/03/15 08:10:26;;;;;;;4.40;2.25;;;;;;;;;;5110993;27;21790;-81
2024/03/15 08:13:12;;;;;;;4.45;1.85;;;;;;;;;;5112673;27;20027;-81
2024/03/15 08:19:04;;;;;;;5.75;1.70;;;;;;;;;;5116942;27;20035;-84
2024/03/15 08:21:51;;;;;;;5.22;1.80;;;;;;;;;;5108618;27;20031;-83
2024/03/15 08:24:37;;;;;;;4.10;2.53;;;;;;;;;;5111040;27;20030;-83
2024/03/15 08:27:22;;;;;;;4.50;2.33;;;;;;;;;;5110914;27;20447;-83
2024/03/15 08:30:08;;;;;;;4.28;2.35;;;;;;;;;;5112566;27;20018;-81
2024/03/15 08:32:53;;;;;;;2.83;1.80;;;;;;;;;;5114560;27;20371;-82
2024/03/15 08:35:38;;;;;;;2.78;1.58;;;;;;;;;;5110034;27;20035;-82
2024/03/15 08:38:24;;;;;;;2.78;1.90;;;;;;;;;;5110684;27;20046;-81
2024/03/15 08:41:10;;;;;;;6.25;1.98;;;;;;;;;;5113666;27;20031;-83
2024/03/15 08:43:56;;;;;;;2.72;1.67;;;;;;;;;;5118084;27;20047;-83
2024/03/15 08:46:41;;;;;;;3.17;2.00;;;;;;;;;;5115264;27;20026;-85
2024/03/15 08:49:27;;;;;;;2.70;1.63;;;;;;;;;;5115455;28;20363;-82
2024/03/15 08:52:15;;;;;;;4.45;2.15;;;;;;;;;;5114372;28;20107;-84
2024/03/15 08:55:01;;;;;;;3.35;1.73;;;;;;;;;;5115275;28;20034;-82
2024/03/15 08:57:47;;;;;;;3.85;1.90;;;;;;;;;;5113576;28;20020;-83
2024/03/15 09:00:35;;;;;;;3.75;2.00;;;;;;;;;;5122079;28;20023;-84
2024/03/15 09:03:20;;;;;;;4.25;1.88;;;;;;;;;;5112008;28;20394;-84
2024/03/15 09:06:09;;;;;;;2.63;1.65;;;;;;;;;;5114464;28;20032;-84
2024/03/15 09:08:56;;;;;;;5.90;1.88;;;;;;;;;;5113499;28;20476;-84
2024/03/15 09:11:43;;;;;;;4.80;1.70;;;;;;;;;;5115959;28;20032;-84
2024/03/15 09:14:29;;;;;;;3.33;1.67;;;;;;;;;;5118721;28;20430;-83
2024/03/15 09:17:14;;;;;;;5.78;2.00;;;;;;;;;;5115741;28;20023;-85
2024/03/15 09:23:12;;;;;;;1.85;1.38;;;;;;;;;;5120466;27;20024;-84
2024/03/15 09:25:58;;;;;;;5.40;1.67;;;;;;;;;;5122881;27;20104;-85
2024/03/15 09:28:43;;;;;;;3.20;1.40;;;;;;;;;;5117859;27;20035;-83
2024/03/15 09:31:29;;;;;;;2.63;1.60;;;;;;;;;;5115170;27;20077;-83
2024/03/15 09:34:14;;;;;;;5.43;2.15;;;;;;;;;;5121027;27;20424;-85
2024/03/15 09:37:02;;;;;;;4.10;1.60;;;;;;;;;;5116686;27;20474;-84
2024/03/15 09:39:47;;;;;;;5.47;2.43;;;;;;;;;;5122243;27;20038;-84
2024/03/15 09:42:33;;;;;;;3.47;1.73;;;;;;;;;;5114477;27;20043;-83
2024/03/15 09:45:21;;;;;;;2.55;1.42;;;;;;;;;;5108929;27;20053;-81
2024/03/15 09:48:10;;;;;;;3.92;1.90;;;;;;;;;;5108008;27;20028;-83
2024/03/15 09:50:59;;;;;;;4.15;1.80;;;;;;;;;;5115399;27;20022;-81
2024/03/15 09:53:47;;;;;;;2.95;1.63;;;;;;;;;;5123785;27;20035;-81
2024/03/15 09:56:34;;;;;;;3.67;1.63;;;;;;;;;;5125648;27;20123;-81
2024/03/15 09:59:22;;;;;;;5.88;2.00;;;;;;;;;;5109312;27;20035;-82
2024/03/15 10:02:23;;;;;;;1.83;1.17;;;;;;;;;;5111036;27;20076;-82
2024/03/15 10:05:08;;;;;;;3.58;1.55;;;;;;;;;;5119996;27;20535;-80
2024/03/15 10:07:54;;;;;;;2.53;1.33;;;;;;;;;;5108934;27;20031;-81
2024/03/15 10:10:40;;;;;;;1.40;1.30;;;;;;;;;;5114178;27;20031;-80
2024/03/15 10:13:29;;;;;;;2.78;1.60;;;;;;;;;;5110722;27;20440;-81
2024/03/15 10:16:14;;;;;;;3.58;1.52;;;;;;;;;;5114115;27;20160;-81
2024/03/15 10:19:01;;;;;;;3.45;1.30;;;;;;;;;;5116136;27;20428;-81
2024/03/15 10:21:46;;;;;;;4.97;1.30;;;;;;;;;;5110804;27;20046;-81
2024/03/15 10:24:37;;;;;;;4.68;1.80;;;;;;;;;;5111058;27;20019;-82
2024/03/15 10:27:22;;;;;;;2.30;1.42;;;;;;;;;;5122258;27;20536;-80
2024/03/15 10:30:13;;;;;;;2.75;1.50;;;;;;;;;;5108706;27;20034;-81
2024/03/15 10:32:58;;;;;;;1.92;1.00;;;;;;;;;;5118281;27;20162;-78
2024/03/15 10:35:43;;;;;;;2.63;1.38;;;;;;;;;;5111825;27;20096;-77
2024/03/15 10:38:29;;;;;;;2.05;1.50;;;;;;;;;;5113405;27;20066;-80
2024/03/15 10:41:14;;;;;;;2.50;1.25;;;;;;;;;;5108103;27;20066;-82
2024/03/15 10:44:00;;;;;;;4.30;1.67;;;;;;;;;;5113264;27;20035;-84
2024/03/15 10:46:46;;;;;;;2.65;1.23;;;;;;;;;;5106380;27;20031;-82
2024/03/15 10:49:31;;;;;;;3.92;1.40;;;;;;;;;;5113255;27;20023;-83
2024/03/15 10:52:16;;;;;;;3.13;1.23;;;;;;;;;;5115759;27;20031;-80
2024/03/15 10:55:03;;;;;;;5.90;1.83;;;;;;;;;;5116045;27;20027;-82
2024/03/15 10:57:48;;;;;;;2.72;1.65;;;;;;;;;;5112590;27;20091;-83
2024/03/15 11:00:34;;;;;;;4.03;1.60;;;;;;;;;;5122085;27;20095;-86
2024/03/15 11:03:30;;;;;;;2.42;1.50;;;;;;;;;;5108767;27;20020;-83
2024/03/15 11:06:15;;;;;;;3.38;1.55;;;;;;;;;;5119373;27;20388;-80
2024/03/15 11:09:10;;;;;;;2.83;1.50;;;;;;;;;;5113692;27;20053;-82
2024/03/15 11:12:05;;;;;;;3.45;1.45;;;;;;;;;;5116518;27;20369;-82
2024/03/15 11:14:51;;;;;;;2.00;1.52;;;;;;;;;;5125067;27;20022;-82
2024/03/15 11:17:36;;;;;;;2.17;1.67;;;;;;;;;;5117804;27;20473;-83
2024/03/15 11:20:22;;;;;;;1.98;1.67;;;;;;;;;;5124662;27;20538;-83
2024/03/15 11:23:17;;;;;;;4.85;1.83;;;;;;;;;;5127232;27;20028;-82
2024/03/15 11:26:07;;;;;;;2.92;1.70;;;;;;;;;;5111792;28;20178;-81
2024/03/15 11:28:53;;;;;;;5.35;1.92;;;;;;;;;;5112745;27;20123;-83
2024/03/15 11:31:39;;;;;;;3.60;1.63;;;;;;;;;;5122792;27;20035;-83
2024/03/15 11:34:25;;;;;;;4.47;1.80;;;;;;;;;;5114062;27;20022;-83
2024/03/15 11:37:12;;;;;;;2.65;1.55;;;;;;;;;;5117951;27;20477;-83
2024/03/15 11:40:00;;;;;;;7.53;1.63;;;;;;;;;;5120468;27;20024;-81
2024/03/15 11:42:45;;;;;;;2.65;1.60;;;;;;;;;;5114866;28;20124;-82
2024/03/15 11:45:30;;;;;;;2.75;1.65;;;;;;;;;;5135319;27;20012;-82
2024/03/15 11:48:19;;;;;;;2.67;1.67;;;;;;;;;;5135034;27;20023;-82
2024/03/15 11:51:05;;;;;;;4.55;1.30;;;;;;;;;;5125463;27;20120;-80
2024/03/15 11:53:50;;;;;;;4.55;1.98;;;;;;;;;;5116025;27;20032;-81
2024/03/15 11:56:35;;;;;;;4.18;2.03;;;;;;;;;;5113462;27;20031;-80
2024/03/15 11:59:21;;;;;;;4.25;1.90;;;;;;;;;;5107095;27;20032;-81
2024/03/15 12:02:09;;;;;;;2.63;1.85;;;;;;;;;;5110675;27;20031;-81
2024/03/15 12:04:56;;;;;;;3.53;1.60;;;;;;;;;;5108862;27;20103;-82
2024/03/15 12:07:44;;;;;;;2.97;1.60;;;;;;;;;;5112641;27;20131;-81
2024/03/15 12:10:29;;;;;;;3.92;1.90;;;;;;;;;;5111624;27;20462;-81
2024/03/15 12:13:18;;;;;;;2.50;1.40;;;;;;;;;;5116280;27;20030;-82
2024/03/15 12:16:05;;;;;;;3.90;1.52;;;;;;;;;;5108632;27;20034;-81
2024/03/15 12:18:51;;;;;;;4.85;1.30;;;;;;;;;;5111325;27;20103;-81
2024/03/15 12:21:40;;;;;;;3.35;1.67;;;;;;;;;;5109478;27;20054;-82
2024/03/15 12:24:26;;;;;;;4.20;1.40;;;;;;;;;;5111815;27;20509;-80
2024/03/15 12:27:11;;;;;;;1.60;1.20;;;;;;;;;;5110985;27;20164;-81
2024/03/15 12:29:56;;;;;;;3.22;1.20;;;;;;;;;;5109662;27;20028;-81
2024/03/15 12:32:42;;;;;;;3.33;1.33;;;;;;;;;;5106591;27;20038;-82
2024/03/15 12:35:27;;;;;;;2.20;1.20;;;;;;;;;;5119428;27;20309;-82
2024/03/15 12:38:14;;;;;;;2.30;1.10;;;;;;;;;;5118665;27;20076;-82
2024/03/15 12:40:59;;;;;;;2.25;1.35;;;;;;;;;;5122248;27;20031;-84
2024/03/15 12:43:44;;;;;;;2.75;1.27;;;;;;;;;;5113633;27;20115;-83
2024/03/15 12:46:29;;;;;;;3.17;1.40;;;;;;;;;;5109735;27;20120;-82
2024/03/15 12:49:15;;;;;;;3.92;1.40;;;;;;;;;;5109916;27;20024;-81
2024/03/15 12:52:00;;;;;;;2.85;1.70;;;;;;;;;;5106790;28;20023;-82
2024/03/15 12:54:45;;;;;;;4.97;1.52;;;;;;;;;;5113967;28;20110;-82
2024/03/15 12:57:30;;;;;;;4.10;1.38;;;;;;;;;;5109678;28;20033;-82
2024/03/15 13:00:20;;;;;;;3.47;1.20;;;;;;;;;;5113044;28;20039;-82
2024/03/15 13:03:07;;;;;;;6.75;1.70;;;;;;;;;;5108166;28;20030;-81
2024/03/15 13:05:53;;;;;;;4.28;1.63;;;;;;;;;;5115997;28;20016;-82
2024/03/15 13:08:38;;;;;;;4.03;1.67;;;;;;;;;;5116977;28;20718;-81
2024/03/15 13:11:23;;;;;;;3.47;1.40;;;;;;;;;;5122421;28;20031;-81
2024/03/15 13:14:09;;;;;;;1.83;1.50;;;;;;;;;;5106114;28;20026;-81
2024/03/15 13:16:54;;;;;;;6.70;1.58;;;;;;;;;;5108643;28;20055;-80
2024/03/15 13:19:40;;;;;;;3.78;1.42;;;;;;;;;;5111910;28;20058;-81
2024/03/15 13:22:25;;;;;;;2.92;1.55;;;;;;;;;;5119539;28;20027;-81
2024/03/15 13:25:14;;;;;;;2.08;1.38;;;;;;;;;;5112482;28;20019;-80
2024/03/15 13:28:00;;;;;;;3.15;1.50;;;;;;;;;;5117981;28;20035;-79
2024/03/15 13:30:46;;;;;;;5.20;1.48;;;;;;;;;;5103725;28;20110;-80
2024/03/15 13:33:39;;;;;;;4.80;1.80;;;;;;;;;;5118057;28;20754;-80
2024/03/15 13:36:25;;;;;;;5.18;1.42;;;;;;;;;;5115523;28;20048;-82
2024/03/15 13:39:20;;;;;;;2.42;1.50;;;;;;;;;;5110111;28;20106;-81
2024/03/15 13:42:06;;;;;;;3.33;1.50;;;;;;;;;;5114973;28;20055;-81
2024/03/15 13:44:51;;;;;;;3.55;1.50;;;;;;;;;;5114678;28;20374;-80
2024/03/15 13:47:37;;;;;;;2.47;1.30;;;;;;;;;;5120375;28;20031;-83
2024/03/15 13:50:23;;;;;;;3.33;1.30;;;;;;;;;;5110020;28;20390;-83
2024/03/15 13:53:08;;;;;;;3.10;1.55;;;;;;;;;;5116889;28;20027;-80
2024/03/15 13:55:53;;;;;;;4.05;1.55;;;;;;;;;;5110600;28;20034;-82
2024/03/15 13:58:39;;;;;;;4.80;1.42;;;;;;;;;;5111276;28;20035;-81
2024/03/15 14:01:24;;;;;;;4.68;1.35;;;;;;;;;;5119140;28;20096;-80
2024/03/15 14:04:09;;;;;;;3.63;1.83;;;;;;;;;;5118113;28;20060;-82
2024/03/15 14:06:55;;;;;;;3.88;1.35;;;;;;;;;;5114087;27;20030;-81
2024/03/15 14:09:40;;;;;;;7.65;1.45;;;;;;;;;;5114777;27;20035;-80
2024/03/15 14:12:25;;;;;;;3.78;1.83;;;;;;;;;;5111001;27;20169;-80
2024/03/15 14:15:11;;;;;;;3.65;1.65;;;;;;;;;;5110270;27;20054;-80
2024/03/15 14:17:56;;;;;;;3.17;2.08;;;;;;;;;;5117392;27;20027;-80
2024/03/15 14:20:44;;;;;;;3.00;1.77;;;;;;;;;;5119306;27;20031;-81
2024/03/15 14:23:29;;;;;;;3.33;1.20;;;;;;;;;;5132381;27;20027;-80
2024/03/15 14:26:14;;;;;;;2.40;1.35;;;;;;;;;;5128650;27;20490;-81
2024/03/15 14:29:00;;;;;;;3.63;1.77;;;;;;;;;;5130720;27;20023;-80
2024/03/15 14:31:45;;;;;;;5.03;1.48;;;;;;;;;;5123803;27;20062;-79
2024/03/15 14:34:30;;;;;;;5.50;1.50;;;;;;;;;;5116381;27;20023;-80
2024/03/15 14:37:15;;;;;;;3.83;1.38;;;;;;;;;;5116872;27;20046;-83
2024/03/15 14:40:07;;;;;;;5.00;1.58;;;;;;;;;;5114845;27;20027;-81
2024/03/15 14:42:53;;;;;;;4.90;1.40;;;;;;;;;;5118869;27;20072;-83
2024/03/15 14:45:38;;;;;;;4.07;1.10;;;;;;;;;;5114190;27;20036;-83
2024/03/15 14:48:24;;;;;;;4.53;1.52;;;;;;;;;;5112481;27;20027;-84
2024/03/15 14:51:09;;;;;;;5.55;1.52;;;;;;;;;;5113862;27;20034;-84
2024/03/15 14:53:54;;;;;;;3.95;1.60;;;;;;;;;;5114266;27;20023;-84
2024/03/15 14:56:40;;;;;;;3.38;1.45;;;;;;;;;;5106385;27;20063;-84
2024/03/15 14:59:25;;;;;;;2.20;1.30;;;;;;;;;;5119674;27;20069;-84
2024/03/15 15:02:10;;;;;;;2.65;1.48;;;;;;;;;;5120117;27;20029;-85
2024/03/15 15:04:56;;;;;;;1.90;1.30;;;;;;;;;;5119385;27;20092;-82
2024/03/15 15:07:41;;;;;;;2.03;1.27;;;;;;;;;;5105866;27;20015;-82
2024/03/15 15:10:27;;;;;;;4.40;1.58;;;;;;;;;;5115294;27;20027;-82
2024/03/15 15:13:13;;;;;;;4.80;1.40;;;;;;;;;;5119831;27;20393;-81
2024/03/15 15:15:58;;;;;;;2.42;1.58;;;;;;;;;;5118067;27;20469;-82
2024/03/15 15:18:43;;;;;;;4.38;1.45;;;;;;;;;;5119927;27;20063;-82
2024/03/15 15:21:28;;;;;;;3.70;1.25;;;;;;;;;;5113576;27;20035;-82
2024/03/15 15:24:14;;;;;;;3.45;1.20;;;;;;;;;;5117081;27;20043;-82
2024/03/15 15:26:59;;;;;;;1.80;1.25;;;;;;;;;;5099307;27;20031;-81
2024/03/15 15:29:44;;;;;;;4.22;1.42;;;;;;;;;;5115614;27;20035;-81
2024/03/15 15:32:29;;;;;;;3.03;1.45;;;;;;;;;;5114558;27;20474;-82
2024/03/15 15:35:15;;;;;;;4.07;1.30;;;;;;;;;;5114990;27;20012;-81
2024/03/15 15:38:00;;;;;;;2.22;1.25;;;;;;;;;;5105914;28;20028;-81
2024/03/15 15:40:46;;;;;;;6.80;2.10;;;;;;;;;;5107214;28;20024;-81
2024/03/15 15:43:34;;;;;;;4.07;1.58;;;;;;;;;;5107064;28;20050;-81
2024/03/15 15:46:19;;;;;;;5.20;1.73;;;;;;;;;;5109358;27;20031;-82
2024/03/15 15:49:04;;;;;;;3.95;1.45;;;;;;;;;;5128187;27;20038;-82
2024/03/15 15:51:50;;;;;;;2.78;1.30;;;;;;;;;;5128098;27;20106;-82
2024/03/15 15:54:35;;;;;;;3.72;1.40;;;;;;;;;;5125315;27;20397;-79
2024/03/15 15:57:21;;;;;;;2.58;1.27;;;;;;;;;;5114733;27;20019;-80
2024/03/15 16:00:18;;;;;;;3.58;1.60;;;;;;;;;;5115073;27;20468;-80
2024/03/15 16:03:04;;;;;;;2.47;1.52;;;;;;;;;;5108013;27;20367;-80
2024/03/15 16:05:49;;;;;;;2.58;1.30;;;;;;;;;;5114466;27;20066;-81
2024/03/15 16:08:38;;;;;;;3.33;1.60;;;;;;;;;;5115641;27;20051;-80
2024/03/15 16:11:24;;;;;;;2.00;1.38;;;;;;;;;;5116372;27;20065;-82
2024/03/15 16:14:09;;;;;;;3.22;1.17;;;;;;;;;;5105757;28;20103;-83
2024/03/15 16:16:57;;;;;;;4.15;1.27;;;;;;;;;;5114528;27;20076;-83
2024/03/15 16:19:45;;;;;;;2.63;1.38;;;;;;;;;;5117868;27;20088;-82
2024/03/15 16:22:32;;;;;;;4.95;1.80;;;;;;;;;;5107067;27;20027;-82
2024/03/15 16:25:17;;;;;;;3.58;1.40;;;;;;;;;;5112206;27;20027;-84
2024/03/15 16:28:04;;;;;;;5.90;1.40;;;;;;;;;;5117897;27;20019;-82
2024/03/15 16:30:50;;;;;;;3.08;1.20;;;;;;;;;;5106117;28;20031;-82
2024/03/15 16:33:35;;;;;;;4.05;1.83;;;;;;;;;;5106489;28;20043;-83
2024/03/15 16:36:21;;;;;;;4.43;1.98;;;;;;;;;;5107490;27;20486;-82
2024/03/15 16:39:06;;;;;;;2.88;1.70;;;;;;;;;;5120964;27;20031;-82
2024/03/15 16:41:54;;;;;;;3.63;1.52;;;;;;;;;;5109190;28;20067;-81
2024/03/15 16:44:43;;;;;;;3.63;1.35;;;;;;;;;;5111650;28;20465;-81
2024/03/15 16:47:28;;;;;;;5.80;1.40;;;;;;;;;;5113469;27;20039;-82